Time;durP1;ratioP1;P1;durP2;ratioP2;P2;SDS_P1;SDS_P2;PMS_P1;PMS_P2;Temp;Humidity;BMP_temperature;BMP_pressure;BME280_temperature;BME280_humidity;BME280_pressure;Samples;Min_cycle;Max_cycle;Signal;HPM_P1;HPM_P2
2021/07/16 00:01:00;;;;;;;10.70;7.40;;;16.40;99.80;;;;;;4957139;28;20477;-87
2021/07/16 00:03:28;;;;;;;13.73;7.63;;;16.40;99.80;;;;;;4977429;28;20475;-89
2021/07/16 00:05:57;;;;;;;21.20;7.13;;;16.40;99.80;;;;;;4993734;28;20475;-88
2021/07/16 00:08:32;;;;;;;7.00;5.53;;;16.40;99.80;;;;;;4982498;28;20979;-89
2021/07/16 00:11:01;;;;;;;14.50;6.63;;;16.30;99.80;;;;;;4986822;28;20483;-88
2021/07/16 00:13:30;;;;;;;8.50;5.83;;;;;;;;;;4985186;28;20461;-89
2021/07/16 00:15:59;;;;;;;10.20;6.30;;;16.30;99.80;;;;;;4988601;28;20475;-89
2021/07/16 00:18:27;;;;;;;10.27;6.17;;;16.30;99.80;;;;;;4983175;28;20503;-89
2021/07/16 06:08:31;;;;;;;8.00;6.27;;;18.80;99.80;;;;;;6152716;22;1279199;-88
2021/07/16 06:10:59;;;;;;;7.00;6.30;;;18.80;99.80;;;;;;6123891;23;20517;-89
2021/07/16 06:13:27;;;;;;;14.67;6.20;;;18.80;99.80;;;;;;6132900;23;20445;-88
2021/07/16 06:15:55;;;;;;;11.90;7.10;;;18.70;99.80;;;;;;6136496;23;20824;-89
2021/07/16 06:18:23;;;;;;;11.03;6.83;;;18.70;99.80;;;;;;6130579;23;20438;-88
2021/07/16 06:20:51;;;;;;;12.67;7.13;;;18.70;99.80;;;;;;6146468;23;20444;-89
2021/07/16 06:23:19;;;;;;;6.60;5.93;;;18.70;99.80;;;;;;6147733;23;20773;-90
2021/07/16 06:25:49;;;;;;;10.10;7.50;;;18.60;99.80;;;;;;6144958;23;20517;-88
2021/07/16 06:28:17;;;;;;;9.13;7.10;;;18.60;99.80;;;;;;6137049;23;20436;-88
2021/07/16 06:30:45;;;;;;;11.17;7.73;;;18.60;99.80;;;;;;6139327;23;20441;-88
2021/07/16 06:33:19;;;;;;;14.87;8.40;;;18.70;99.80;;;;;;6143853;23;20831;-88
2021/07/16 06:35:47;;;;;;;9.23;7.73;;;18.80;99.80;;;;;;6146355;23;20441;-88
2021/07/16 06:38:15;;;;;;;10.00;8.20;;;18.80;99.80;;;;;;6133119;23;20441;-88
2021/07/16 06:40:43;;;;;;;17.70;8.37;;;18.90;99.80;;;;;;6137363;23;20433;-88
2021/07/16 06:43:13;;;;;;;13.37;8.80;;;19.00;99.80;;;;;;6151894;23;20439;-89
2021/07/16 06:45:41;;;;;;;13.17;9.30;;;19.20;99.80;;;;;;6138508;23;20441;-88
2021/07/16 06:48:09;;;;;;;14.70;9.07;;;19.40;99.80;;;;;;6142120;23;20445;-88
2021/07/16 06:50:37;;;;;;;17.63;9.17;;;19.50;99.80;;;;;;6169692;23;20425;-88
2021/07/16 06:53:05;;;;;;;10.30;7.93;;;19.70;99.80;;;;;;6159329;23;20926;-89
2021/07/16 06:55:33;;;;;;;11.37;8.97;;;19.80;99.80;;;;;;6153764;23;20547;-88
2021/07/16 06:58:01;;;;;;;12.07;9.03;;;19.90;99.80;;;;;;6151563;23;20441;-88
2021/07/16 07:00:31;;;;;;;20.87;10.70;;;19.80;99.80;;;;;;6113256;23;20445;-88
2021/07/16 07:02:59;;;;;;;10.00;8.93;;;19.80;99.80;;;;;;6141459;23;20458;-88
2021/07/16 07:05:28;;;;;;;15.87;10.07;;;19.80;99.80;;;;;;6143451;23;20438;-88
2021/07/16 07:07:56;;;;;;;25.27;10.17;;;19.70;99.80;;;;;;6146834;23;20438;-88
2021/07/16 07:10:24;;;;;;;11.90;9.40;;;19.70;99.80;;;;;;6136882;23;20438;-89
2021/07/16 07:12:52;;;;;;;13.33;8.93;;;19.60;99.80;;;;;;6141489;23;20515;-88
2021/07/16 07:15:20;;;;;;;15.20;9.93;;;19.70;99.80;;;;;;6156202;23;20433;-88
2021/07/16 07:17:49;;;;;;;13.67;9.87;;;19.80;99.80;;;;;;6142812;23;20465;-87
2021/07/16 07:20:17;;;;;;;15.67;10.37;;;19.90;99.80;;;;;;6129102;23;20445;-88
2021/07/16 07:22:45;;;;;;;15.07;11.20;;;19.90;99.80;;;;;;6133696;23;20434;-88
2021/07/16 07:25:14;;;;;;;13.30;11.00;;;20.00;99.80;;;;;;6159435;23;20457;-88
2021/07/16 07:27:42;;;;;;;20.97;10.73;;;20.00;99.80;;;;;;6162149;23;20516;-88
2021/07/16 07:30:11;;;;;;;14.10;10.43;;;20.10;99.80;;;;;;6169129;23;20961;-88
2021/07/16 07:32:39;;;;;;;15.10;11.67;;;20.30;99.80;;;;;;6168055;23;20441;-88
2021/07/16 07:35:09;;;;;;;13.50;10.77;;;20.40;99.80;;;;;;6168449;23;20438;-88
2021/07/16 07:37:38;;;;;;;15.90;12.20;;;20.60;99.80;;;;;;6174958;23;20441;-89
2021/07/16 07:40:08;;;;;;;14.80;11.10;;;20.80;99.80;;;;;;6169967;23;20433;-89
2021/07/16 07:42:36;;;;;;;17.70;11.80;;;20.90;99.80;;;;;;6161574;23;20464;-88
2021/07/16 07:45:06;;;;;;;15.43;11.10;;;21.00;99.80;;;;;;6168390;23;20447;-89
2021/07/16 07:47:35;;;;;;;15.37;11.57;;;21.10;99.80;;;;;;6164218;23;20441;-88
2021/07/16 07:50:06;;;;;;;16.67;9.97;;;21.10;99.80;;;;;;6175800;23;20490;-89
2021/07/16 07:52:35;;;;;;;16.57;11.47;;;20.90;99.80;;;;;;6165644;23;20520;-88
2021/07/16 07:55:04;;;;;;;18.20;11.67;;;20.70;99.80;;;;;;6160302;23;21113;-88
2021/07/16 07:57:32;;;;;;;16.93;12.13;;;20.80;99.80;;;;;;6161786;23;20437;-88
2021/07/16 08:00:01;;;;;;;13.07;10.13;;;;;;;;;;6156308;23;20433;-88
2021/07/16 08:02:29;;;;;;;16.70;11.20;;;;;;;;;;6096173;23;20592;-89
2021/07/16 08:04:57;;;;;;;16.87;9.93;;;21.10;99.80;;;;;;6145374;23;20974;-89
2021/07/16 08:07:25;;;;;;;14.63;10.37;;;21.40;99.80;;;;;;6143546;23;20472;-89
2021/07/16 08:09:55;;;;;;;15.10;10.73;;;21.70;99.80;;;;;;6145959;23;20516;-89
2021/07/16 08:12:23;;;;;;;18.03;11.90;;;22.00;99.80;;;;;;6139204;23;20517;-89
2021/07/16 08:14:51;;;;;;;17.47;9.83;;;22.40;99.80;;;;;;6140863;23;20558;-88
2021/07/16 08:17:20;;;;;;;14.80;10.10;;;;;;;;;;6171662;23;20479;-88
2021/07/16 08:19:48;;;;;;;13.00;9.87;;;23.10;99.80;;;;;;6150294;23;20426;-89
2021/07/16 08:22:16;;;;;;;16.10;11.17;;;23.20;99.80;;;;;;6135959;23;20516;-89
2021/07/16 08:24:44;;;;;;;15.00;10.10;;;;;;;;;;6132424;23;20433;-88
2021/07/16 08:27:14;;;;;;;14.53;9.00;;;23.30;99.80;;;;;;6135400;23;20464;-88
2021/07/16 08:29:42;;;;;;;12.27;8.97;;;;;;;;;;6123171;23;20466;-88
2021/07/16 08:32:11;;;;;;;12.40;9.20;;;22.80;99.80;;;;;;6137516;23;20442;-88
2021/07/16 08:34:39;;;;;;;13.70;10.60;;;22.30;99.80;;;;;;6143215;23;20438;-89
2021/07/16 08:37:07;;;;;;;14.90;10.20;;;22.10;99.80;;;;;;6141555;23;20440;-87
2021/07/16 08:39:35;;;;;;;15.20;10.37;;;22.10;99.80;;;;;;6141384;23;20444;-88
2021/07/16 08:42:04;;;;;;;16.30;9.90;;;22.00;99.80;;;;;;6140446;23;20441;-89
2021/07/16 08:44:37;;;;;;;15.20;11.00;;;22.00;99.80;;;;;;6135668;23;20973;-87
2021/07/16 08:47:05;;;;;;;14.57;10.87;;;22.00;99.80;;;;;;6154765;23;20429;-87
2021/07/16 08:49:34;;;;;;;13.10;10.97;;;22.00;99.80;;;;;;6172973;23;20440;-88
2021/07/16 08:52:03;;;;;;;16.23;11.03;;;22.00;99.80;;;;;;6176463;23;20441;-88
2021/07/16 08:54:31;;;;;;;14.30;9.83;;;22.10;99.80;;;;;;6170518;23;20977;-88
2021/07/16 08:56:59;;;;;;;13.63;9.53;;;22.20;99.80;;;;;;6166251;23;20441;-87
2021/07/16 08:59:27;;;;;;;13.57;10.77;;;;;;;;;;6153267;23;21056;-88
2021/07/16 09:01:57;;;;;;;13.60;10.30;;;22.30;99.80;;;;;;6164228;23;20576;-89
2021/07/16 09:04:26;;;;;;;11.90;10.20;;;22.40;99.80;;;;;;6126688;23;20538;-87
2021/07/16 09:06:55;;;;;;;12.60;9.90;;;22.40;99.80;;;;;;6137114;23;20443;-87
2021/07/16 09:09:25;;;;;;;13.70;10.17;;;22.60;99.80;;;;;;6114651;23;20451;-88
2021/07/16 09:11:54;;;;;;;14.57;9.40;;;22.70;99.80;;;;;;6134443;23;20534;-88
2021/07/16 09:14:25;;;;;;;13.67;10.10;;;22.90;99.80;;;;;;6159669;23;20436;-88
2021/07/16 09:16:58;;;;;;;12.43;8.90;;;23.10;99.80;;;;;;6147302;23;20437;-88
2021/07/16 09:19:34;;;;;;;11.00;8.77;;;23.50;99.80;;;;;;6171082;23;20441;-89
2021/07/16 09:22:05;;;;;;;12.80;9.20;;;23.70;99.80;;;;;;6173762;23;20441;-88
2021/07/16 09:24:36;;;;;;;10.80;8.83;;;23.80;99.80;;;;;;6173411;23;20826;-87
2021/07/16 09:27:30;;;;;;;12.40;9.17;;;23.60;99.80;;;;;;6164019;23;20457;-88
2021/07/16 09:30:18;;;;;;;18.90;10.63;;;23.70;99.80;;;;;;6166347;23;20986;-88
2021/07/16 09:32:49;;;;;;;12.33;8.40;;;23.60;99.80;;;;;;6161374;23;20524;-88
2021/07/16 09:35:24;;;;;;;10.33;8.70;;;23.60;99.80;;;;;;6166010;23;20955;-87
2021/07/16 09:37:55;;;;;;;11.70;8.50;;;23.90;99.80;;;;;;6130756;23;20434;-87
2021/07/16 09:40:25;;;;;;;10.77;8.47;;;24.10;99.80;;;;;;6154427;23;20436;-86
2021/07/16 09:43:07;;;;;;;12.90;8.10;;;24.20;99.80;;;;;;6145111;23;20432;-86
2021/07/16 09:45:36;;;;;;;13.43;7.73;;;24.20;99.80;;;;;;6146041;23;20955;-86
2021/07/16 09:48:36;;;;;;;10.43;8.70;;;24.30;99.80;;;;;;6137843;23;20469;-87
2021/07/16 09:51:13;;;;;;;10.83;8.80;;;24.40;99.80;;;;;;6024599;23;20531;-87
2021/07/16 09:53:42;;;;;;;10.00;8.47;;;24.30;99.80;;;;;;6125563;23;20867;-87
2021/07/16 09:56:12;;;;;;;11.37;8.00;;;24.50;99.80;;;;;;6146228;23;20438;-86
2021/07/16 09:58:40;;;;;;;10.13;8.03;;;24.50;99.80;;;;;;6116707;23;20429;-87
2021/07/16 10:01:10;;;;;;;7.70;6.87;;;24.60;99.80;;;;;;6107276;23;20446;-87
2021/07/16 10:03:41;;;;;;;14.17;8.10;;;24.80;99.80;;;;;;6159242;23;20834;-87
2021/07/16 10:06:13;;;;;;;9.83;8.33;;;24.90;99.80;;;;;;6129900;23;20667;-87
2021/07/16 10:08:43;;;;;;;10.60;8.23;;;24.90;99.80;;;;;;6145479;23;20437;-86
2021/07/16 10:11:12;;;;;;;8.43;7.67;;;24.70;99.80;;;;;;6136021;23;20508;-87
2021/07/16 10:13:41;;;;;;;8.70;7.80;;;24.50;99.80;;;;;;6111521;23;20470;-87
2021/07/16 10:16:09;;;;;;;10.27;8.10;;;24.10;99.80;;;;;;6126378;23;20499;-87
2021/07/16 10:18:40;;;;;;;8.70;7.80;;;23.90;99.80;;;;;;6136366;23;20500;-87
2021/07/16 10:21:08;;;;;;;11.30;6.70;;;23.90;99.80;;;;;;6145279;23;20453;-87
2021/07/16 10:23:39;;;;;;;8.33;6.90;;;23.90;99.80;;;;;;6144709;23;20449;-87
2021/07/16 10:26:10;;;;;;;9.33;7.30;;;23.80;99.80;;;;;;6142728;23;20493;-87
2021/07/16 10:28:42;;;;;;;8.03;7.30;;;23.50;99.80;;;;;;6139927;23;20511;-86
2021/07/16 10:31:37;;;;;;;8.30;6.80;;;23.30;99.80;;;;;;6136768;23;20505;-88
2021/07/16 10:34:37;;;;;;;10.60;7.47;;;23.00;99.80;;;;;;6143581;23;20523;-87
2021/07/16 10:37:10;;;;;;;7.90;6.73;;;22.70;99.80;;;;;;6146707;23;20469;-88
2021/07/16 10:39:48;;;;;;;10.10;7.87;;;22.50;99.80;;;;;;6138175;23;20481;-86
2021/07/16 10:42:49;;;;;;;10.30;7.50;;;22.50;99.80;;;;;;6163658;23;20883;-88
2021/07/16 10:45:33;;;;;;;8.83;7.73;;;22.70;99.80;;;;;;6011260;23;20526;-87
2021/07/16 10:48:18;;;;;;;11.90;8.20;;;22.80;99.80;;;;;;6013865;23;20433;-87
2021/07/16 10:50:48;;;;;;;10.60;8.50;;;22.80;99.80;;;;;;6099677;23;20453;-87
2021/07/16 10:53:39;;;;;;;10.27;7.30;;;22.80;99.80;;;;;;6137426;23;20782;-87
2021/07/16 10:56:10;;;;;;;10.53;7.47;;;23.00;99.80;;;;;;6128741;23;20445;-87
2021/07/16 10:58:52;;;;;;;11.27;8.87;;;23.10;99.80;;;;;;6110025;23;20582;-88
2021/07/16 11:01:32;;;;;;;8.20;7.40;;;23.40;99.80;;;;;;6095833;23;20468;-87
2021/07/16 11:04:01;;;;;;;8.27;6.60;;;23.90;99.80;;;;;;6131706;23;20437;-86
2021/07/16 11:06:54;;;;;;;8.20;6.83;;;23.80;99.80;;;;;;6142910;23;20460;-86
2021/07/16 11:09:37;;;;;;;8.70;7.70;;;23.60;99.80;;;;;;6138020;23;20925;-86
2021/07/16 11:12:35;;;;;;;10.73;7.57;;;23.50;99.80;;;;;;6148459;23;20429;-87
2021/07/16 11:15:04;;;;;;;7.90;7.10;;;24.00;99.80;;;;;;6111158;23;20520;-87
2021/07/16 11:17:36;;;;;;;9.60;7.90;;;24.40;99.80;;;;;;6121793;23;20460;-87
2021/07/16 11:20:13;;;;;;;8.20;7.07;;;24.70;99.80;;;;;;6162312;23;20442;-87
2021/07/16 11:23:06;;;;;;;7.77;6.97;;;24.90;99.80;;;;;;6151690;23;20495;-86
2021/07/16 11:25:35;;;;;;;8.47;6.67;;;25.10;99.80;;;;;;6070012;23;20447;-87
2021/07/16 11:28:08;;;;;;;9.80;6.60;;;25.10;99.80;;;;;;6102817;23;20434;-87
2021/07/16 11:30:36;;;;;;;6.63;6.00;;;;;;;;;;6136213;23;20439;-86
2021/07/16 11:33:06;;;;;;;7.40;6.43;;;25.40;99.80;;;;;;6148738;23;20527;-86
2021/07/16 11:35:35;;;;;;;6.90;6.20;;;25.40;99.80;;;;;;6143595;23;20781;-87
2021/07/16 11:38:08;;;;;;;7.00;5.93;;;25.20;99.80;;;;;;6147124;23;20535;-87
2021/07/16 11:40:37;;;;;;;6.80;5.80;;;;;;;;;;6131065;23;20532;-87
2021/07/16 11:43:06;;;;;;;10.03;6.43;;;;;;;;;;6125704;23;20888;-89
2021/07/16 11:45:36;;;;;;;8.23;5.77;;;24.70;99.80;;;;;;6138872;23;20450;-88
2021/07/16 11:48:14;;;;;;;5.90;5.40;;;24.80;99.80;;;;;;6144566;23;20445;-89
2021/07/16 11:50:46;;;;;;;6.37;5.73;;;;;;;;;;6147616;23;20445;-87
2021/07/16 11:53:16;;;;;;;6.80;6.20;;;24.60;99.80;;;;;;6111487;23;20971;-88
2021/07/16 11:55:45;;;;;;;6.80;6.17;;;24.50;99.80;;;;;;6144788;23;20439;-87
2021/07/16 11:58:13;;;;;;;7.10;6.40;;;24.80;99.80;;;;;;6110841;23;20444;-87
2021/07/16 12:00:46;;;;;;;6.80;6.07;;;;;;;;;;6114400;23;20446;-87
2021/07/16 12:03:15;;;;;;;6.67;6.07;;;25.20;99.80;;;;;;6148392;23;20496;-87
2021/07/16 12:05:48;;;;;;;5.80;5.20;;;25.20;99.80;;;;;;6142172;23;20826;-87
2021/07/16 12:08:20;;;;;;;5.60;5.10;;;25.20;99.80;;;;;;6171364;23;20889;-87
2021/07/16 12:10:50;;;;;;;5.00;4.60;;;25.30;99.80;;;;;;6175715;23;20496;-87
2021/07/16 12:13:19;;;;;;;7.10;5.13;;;25.70;99.80;;;;;;6143041;23;20441;-87
2021/07/16 12:15:59;;;;;;;6.03;5.10;;;25.80;99.80;;;;;;6144320;23;20462;-87
2021/07/16 12:18:28;;;;;;;5.40;4.93;;;25.50;99.80;;;;;;6139434;23;20781;-87
2021/07/16 12:20:56;;;;;;;5.50;4.67;;;25.80;99.80;;;;;;6163773;23;20776;-87
2021/07/16 12:23:26;;;;;;;6.80;5.20;;;26.10;99.80;;;;;;6162820;23;20440;-86
2021/07/16 12:26:09;;;;;;;4.47;4.17;;;;;;;;;;6135990;23;20522;-88
2021/07/16 12:28:38;;;;;;;4.77;4.37;;;;;;;;;;6146131;23;20866;-88
2021/07/16 12:31:06;;;;;;;6.90;4.83;;;;;;;;;;6128747;23;20444;-87
2021/07/16 12:33:35;;;;;;;7.93;4.63;;;27.90;92.40;;;;;;6145350;23;20512;-87
2021/07/16 12:36:04;;;;;;;5.30;4.90;;;27.20;95.70;;;;;;6136151;23;20508;-87
2021/07/16 12:38:40;;;;;;;5.83;4.90;;;26.90;96.40;;;;;;6140469;23;20514;-88
2021/07/16 12:41:11;;;;;;;5.13;4.73;;;26.50;95.50;;;;;;6128111;23;20551;-87
2021/07/16 12:43:40;;;;;;;6.20;4.70;;;26.30;97.70;;;;;;6139081;23;20433;-86
2021/07/16 12:46:08;;;;;;;5.10;4.60;;;26.60;97.30;;;;;;6148309;23;20436;-87
2021/07/16 12:48:37;;;;;;;5.47;5.00;;;26.50;95.90;;;;;;6133359;23;20515;-87
2021/07/16 12:51:08;;;;;;;4.77;4.40;;;26.20;97.50;;;;;;6156956;23;20443;-87
2021/07/16 12:53:40;;;;;;;6.37;5.17;;;26.00;97.80;;;;;;6175474;23;20436;-87
2021/07/16 12:56:16;;;;;;;5.10;4.70;;;26.40;97.50;;;;;;6151923;23;20438;-87
2021/07/16 12:58:45;;;;;;;5.40;5.00;;;;;;;;;;6123877;23;20517;-88
2021/07/16 13:01:13;;;;;;;5.30;4.80;;;;;;;;;;6111084;23;20445;-87
2021/07/16 13:03:43;;;;;;;4.87;4.40;;;;;;;;;;6131589;23;20442;-88
2021/07/16 13:06:17;;;;;;;4.93;4.43;;;;;;;;;;6119722;23;20509;-87
2021/07/16 13:09:01;;;;;;;4.70;4.30;;;;;;;;;;6133357;23;20975;-87
2021/07/16 13:11:30;;;;;;;4.37;4.07;;;;;;;;;;6118455;23;20541;-88
2021/07/16 13:13:59;;;;;;;4.70;4.40;;;;;;;;;;6120323;23;20778;-86
2021/07/16 13:16:28;;;;;;;4.17;3.83;;;;;;;;;;6102356;23;20513;-87
2021/07/16 13:18:58;;;;;;;4.83;4.40;;;30.70;83.40;;;;;;6130340;23;20764;-87
2021/07/16 13:21:27;;;;;;;4.20;3.90;;;30.40;83.70;;;;;;6140895;23;20517;-87
2021/07/16 13:23:55;;;;;;;4.40;4.10;;;;;;;;;;6147013;23;20429;-87
2021/07/16 13:26:33;;;;;;;4.77;4.37;;;29.30;84.60;;;;;;6132344;23;20445;-86
2021/07/16 13:29:05;;;;;;;4.47;4.07;;;28.50;87.60;;;;;;6109815;23;20492;-89
2021/07/16 13:31:36;;;;;;;6.10;4.70;;;28.40;89.70;;;;;;6108898;23;20446;-88
2021/07/16 13:34:05;;;;;;;5.40;4.40;;;;;;;;;;6128228;23;20496;-85
2021/07/16 13:36:33;;;;;;;4.20;3.90;;;;;;;;;;6159561;23;20436;-85
2021/07/16 13:39:02;;;;;;;5.13;4.73;;;;;;;;;;6080451;23;20434;-88
2021/07/16 13:41:31;;;;;;;5.03;4.63;;;28.10;87.80;;;;;;6095237;23;20442;-89
2021/07/16 13:43:59;;;;;;;4.73;4.30;;;;;;;;;;6114377;23;20997;-88
2021/07/16 13:46:28;;;;;;;4.73;4.33;;;;;;;;;;6124232;23;20750;-89
2021/07/16 13:48:56;;;;;;;10.00;4.50;;;27.90;89.70;;;;;;6137227;23;21218;-89
2021/07/16 13:51:24;;;;;;;4.90;4.53;;;;;;;;;;6147150;23;20512;-88
2021/07/16 13:53:53;;;;;;;5.10;4.60;;;;;;;;;;6149027;23;20434;-89
2021/07/16 13:56:21;;;;;;;8.90;4.67;;;;;;;;;;6147210;23;20539;-90
2021/07/16 13:58:50;;;;;;;4.90;4.50;;;27.70;90.40;;;;;;6120398;23;20504;-87
2021/07/16 14:01:19;;;;;;;4.60;4.30;;;;;;;;;;6097041;23;20434;-86
2021/07/16 14:03:47;;;;;;;5.30;4.87;;;27.80;90.00;;;;;;6149564;23;20432;-88
2021/07/16 14:06:15;;;;;;;5.00;4.60;;;;;;;;;;6152784;23;20468;-89
2021/07/16 14:08:44;;;;;;;5.03;4.60;;;;;;;;;;6120150;23;20460;-88
2021/07/16 14:11:12;;;;;;;7.37;4.93;;;;;;;;;;6121364;23;20457;-89
2021/07/16 14:13:40;;;;;;;6.00;5.40;;;;;;;;;;6069356;23;20517;-89
2021/07/16 14:16:10;;;;;;;5.30;4.87;;;27.00;93.50;;;;;;6088836;23;20493;-88
2021/07/16 14:18:38;;;;;;;5.30;4.90;;;;;;;;;;6131491;23;20444;-91
2021/07/16 14:21:27;;;;;;;5.50;5.00;;;;;;;;;;6144656;23;20446;-89
2021/07/16 14:23:55;;;;;;;5.50;5.03;;;;;;;;;;6145951;23;20952;-88
2021/07/16 14:26:24;;;;;;;5.50;5.10;;;27.10;93.50;;;;;;6147451;23;20517;-90
2021/07/16 14:28:52;;;;;;;5.13;4.73;;;26.70;92.90;;;;;;6132118;23;20462;-88
2021/07/16 14:31:23;;;;;;;4.90;4.50;;;26.40;94.70;;;;;;6124255;23;20452;-89
2021/07/16 14:33:52;;;;;;;4.80;4.40;;;26.50;94.70;;;;;;6129952;23;20442;-89
2021/07/16 14:36:20;;;;;;;5.70;5.20;;;26.80;94.10;;;;;;6140811;23;20434;-88
2021/07/16 14:38:48;;;;;;;5.93;5.33;;;27.30;93.30;;;;;;6142102;23;20441;-90
2021/07/16 14:41:17;;;;;;;5.33;4.93;;;27.80;91.00;;;;;;6103646;23;20488;-93
2021/07/16 14:43:46;;;;;;;6.37;5.20;;;27.90;89.60;;;;;;6123316;23;21021;-91
2021/07/16 14:46:15;;;;;;;5.03;4.60;;;27.60;88.90;;;;;;6097098;23;20808;-91
2021/07/16 14:48:47;;;;;;;4.87;4.47;;;27.00;91.00;;;;;;6129424;23;20438;-91
2021/07/16 14:51:17;;;;;;;4.87;4.47;;;26.50;92.70;;;;;;6140651;23;20525;-90
2021/07/16 14:53:45;;;;;;;6.37;5.87;;;;;;;;;;6145967;23;20485;-91
2021/07/16 14:56:13;;;;;;;5.77;5.20;;;25.40;95.10;;;;;;6128469;23;20440;-90
2021/07/16 14:58:42;;;;;;;7.73;5.50;;;25.20;96.90;;;;;;6125020;23;21060;-93
2021/07/16 15:01:11;;;;;;;5.70;5.20;;;;;;;;;;6121461;23;20434;-94
2021/07/16 15:03:40;;;;;;;6.17;5.30;;;;;;;;;;6142990;23;20471;-92
2021/07/16 15:06:12;;;;;;;6.07;5.50;;;25.40;96.10;;;;;;6149485;23;20440;-91
2021/07/16 15:08:40;;;;;;;6.07;5.43;;;25.30;96.50;;;;;;6148915;23;20441;-91
2021/07/16 15:11:08;;;;;;;5.70;5.10;;;25.40;95.70;;;;;;6144667;23;20833;-90
2021/07/16 15:13:36;;;;;;;6.40;5.43;;;;;;;;;;6142271;23;21170;-91
2021/07/16 15:16:05;;;;;;;5.77;5.27;;;25.70;95.40;;;;;;6116522;23;20465;-90
2021/07/16 15:18:33;;;;;;;6.43;5.00;;;26.20;93.60;;;;;;6120412;23;20441;-93
2021/07/16 15:21:04;;;;;;;5.23;4.77;;;26.20;93.80;;;;;;6143103;23;20438;-93
2021/07/16 15:23:33;;;;;;;5.27;4.77;;;26.30;93.30;;;;;;6119674;23;20505;-92
2021/07/16 15:26:01;;;;;;;5.57;5.07;;;26.50;92.70;;;;;;6170228;23;20458;-90
2021/07/16 15:28:29;;;;;;;5.93;5.33;;;26.70;92.60;;;;;;6165877;23;20535;-92
2021/07/16 15:30:57;;;;;;;5.83;4.70;;;26.60;91.90;;;;;;6170482;23;20967;-90
2021/07/16 15:33:27;;;;;;;5.33;4.77;;;;;;;;;;6165229;23;20498;-92
2021/07/16 15:36:01;;;;;;;5.83;5.33;;;26.20;92.80;;;;;;6177105;23;20447;-90
2021/07/16 15:38:29;;;;;;;8.30;5.13;;;26.00;94.10;;;;;;6179001;23;20562;-91
2021/07/16 15:40:58;;;;;;;6.13;5.63;;;25.80;95.50;;;;;;6176686;23;20439;-91
2021/07/16 15:43:27;;;;;;;5.53;5.03;;;25.60;96.20;;;;;;6163783;23;20444;-90
2021/07/16 15:45:55;;;;;;;5.63;5.23;;;25.80;95.60;;;;;;6146565;23;20834;-91
2021/07/16 15:48:23;;;;;;;5.60;4.90;;;25.80;96.50;;;;;;6152708;23;20438;-91
2021/07/16 15:50:53;;;;;;;6.30;5.70;;;25.60;96.70;;;;;;6150119;23;20438;-91
2021/07/16 15:53:21;;;;;;;7.40;5.50;;;;;;;;;;6139144;23;20448;-91
2021/07/16 15:55:49;;;;;;;6.20;5.60;;;25.30;98.20;;;;;;6144202;23;20777;-90
2021/07/16 15:58:19;;;;;;;6.07;5.50;;;25.10;98.30;;;;;;6168053;23;20440;-92
2021/07/16 16:00:47;;;;;;;5.47;5.03;;;25.00;98.40;;;;;;6069457;23;21005;-92
2021/07/16 16:03:15;;;;;;;6.37;5.77;;;24.90;98.50;;;;;;6132555;23;20448;-91
2021/07/16 16:05:44;;;;;;;5.57;4.97;;;24.70;98.80;;;;;;6149337;23;20555;-91
2021/07/16 16:08:12;;;;;;;5.63;5.23;;;24.70;98.50;;;;;;6152638;23;20509;-91
2021/07/16 16:10:40;;;;;;;7.23;5.10;;;24.90;98.70;;;;;;6174929;23;20519;-90
2021/07/16 16:13:08;;;;;;;5.60;5.20;;;25.00;99.10;;;;;;6177361;23;20473;-91
2021/07/16 16:15:39;;;;;;;5.30;4.80;;;25.30;98.20;;;;;;6169689;23;20432;-91
2021/07/16 16:18:08;;;;;;;5.37;4.87;;;25.60;98.20;;;;;;6167560;23;20447;-91
2021/07/16 16:20:51;;;;;;;5.50;5.00;;;25.70;97.70;;;;;;6175349;23;20439;-91
2021/07/16 16:23:19;;;;;;;6.40;5.03;;;;;;;;;;6169146;23;20460;-92
2021/07/16 16:25:47;;;;;;;5.47;4.97;;;25.70;97.50;;;;;;6169270;23;20446;-90
2021/07/16 16:28:16;;;;;;;6.70;5.70;;;;;;;;;;6168033;23;20437;-90
2021/07/16 16:30:45;;;;;;;6.33;5.73;;;25.90;96.80;;;;;;6162934;23;20440;-91
2021/07/16 16:33:13;;;;;;;6.57;5.67;;;26.00;96.90;;;;;;6165992;23;20441;-89
2021/07/16 16:35:43;;;;;;;6.07;5.57;;;25.90;97.70;;;;;;6160726;23;20436;-90
2021/07/16 16:38:11;;;;;;;6.27;5.67;;;25.80;96.80;;;;;;6171900;23;20439;-90
2021/07/16 16:40:39;;;;;;;5.60;5.10;;;25.70;98.00;;;;;;6168361;23;20433;-91
2021/07/16 16:43:08;;;;;;;6.60;6.10;;;;;;;;;;6156128;23;20451;-91
2021/07/16 16:45:36;;;;;;;7.50;6.43;;;25.70;97.70;;;;;;6169309;23;21126;-90
2021/07/16 16:48:06;;;;;;;6.50;5.50;;;25.80;97.10;;;;;;6132793;23;20495;-91
2021/07/16 16:50:35;;;;;;;8.53;5.57;;;25.60;97.10;;;;;;6147245;23;20444;-89
2021/07/16 16:53:08;;;;;;;5.83;5.33;;;25.50;98.00;;;;;;6147415;23;20441;-92
2021/07/16 16:55:36;;;;;;;6.50;6.00;;;25.70;97.30;;;;;;6143747;23;20433;-91
2021/07/16 16:58:05;;;;;;;6.37;5.73;;;26.00;95.80;;;;;;6141792;23;20456;-92
2021/07/16 17:00:33;;;;;;;6.37;5.87;;;26.40;95.00;;;;;;6120534;23;20441;-91
2021/07/16 17:03:02;;;;;;;8.37;6.50;;;;;;;;;;6132289;23;20774;-92
2021/07/16 17:05:32;;;;;;;6.57;6.07;;;26.80;93.40;;;;;;6140399;23;20530;-92
2021/07/16 17:08:00;;;;;;;6.17;5.63;;;;;;;;;;6156356;23;20607;-91
2021/07/16 17:10:28;;;;;;;6.30;5.70;;;26.90;93.90;;;;;;6167369;23;20447;-92
2021/07/16 17:12:57;;;;;;;6.47;5.50;;;;;;;;;;6174479;23;20849;-92
2021/07/16 17:15:25;;;;;;;7.20;6.00;;;;;;;;;;6170847;23;20440;-92
2021/07/16 17:17:54;;;;;;;7.07;6.37;;;26.00;97.00;;;;;;6170238;23;20436;-90
2021/07/16 17:20:22;;;;;;;6.67;6.03;;;25.70;97.60;;;;;;6181800;23;20607;-92
2021/07/16 17:22:52;;;;;;;7.67;6.90;;;25.60;97.60;;;;;;6179566;23;20432;-91
2021/07/16 17:25:20;;;;;;;6.07;5.50;;;25.70;97.40;;;;;;6178173;23;21008;-93
2021/07/16 17:27:49;;;;;;;6.77;6.07;;;25.80;97.10;;;;;;6165473;23;20948;-93
2021/07/16 17:30:19;;;;;;;7.43;6.10;;;26.00;97.50;;;;;;6165098;23;20847;-91
2021/07/16 17:32:49;;;;;;;10.10;6.63;;;26.10;96.10;;;;;;6169359;23;20519;-91
2021/07/16 17:35:18;;;;;;;7.20;6.40;;;26.20;96.20;;;;;;6178874;23;20444;-88
2021/07/16 17:37:47;;;;;;;8.83;6.83;;;26.30;95.70;;;;;;6165327;23;20437;-89
2021/07/16 17:40:19;;;;;;;6.53;5.67;;;26.20;96.30;;;;;;6148178;23;20443;-89
2021/07/16 17:42:49;;;;;;;7.27;6.07;;;26.10;95.90;;;;;;6165804;23;20437;-88
2021/07/16 17:45:17;;;;;;;8.30;6.17;;;25.90;97.00;;;;;;6127946;23;20440;-89
2021/07/16 17:47:46;;;;;;;9.90;6.90;;;25.70;97.10;;;;;;6165735;23;20836;-92
2021/07/16 17:50:17;;;;;;;7.40;6.70;;;25.30;98.40;;;;;;6177154;23;20432;-92
2021/07/16 17:52:46;;;;;;;9.50;7.17;;;25.00;99.50;;;;;;6177601;23;20551;-91
2021/07/16 17:55:17;;;;;;;8.60;6.60;;;24.70;99.80;;;;;;6179084;23;20432;-91
2021/07/16 17:57:46;;;;;;;8.80;6.20;;;24.30;99.80;;;;;;6178835;23;20503;-92
2021/07/16 18:00:17;;;;;;;7.10;6.40;;;24.00;99.80;;;;;;6150952;23;20459;-91
2021/07/16 18:02:50;;;;;;;8.23;7.40;;;23.90;99.80;;;;;;6156120;23;20866;-93
2021/07/16 18:05:20;;;;;;;7.50;6.73;;;24.00;99.80;;;;;;6179257;23;20455;-92
2021/07/16 18:07:49;;;;;;;7.30;6.57;;;24.00;99.80;;;;;;6182278;23;20438;-92
2021/07/16 18:10:21;;;;;;;8.10;7.30;;;23.80;99.80;;;;;;6166710;23;20450;-90
2021/07/16 18:12:50;;;;;;;8.37;7.47;;;23.50;99.80;;;;;;6172028;23;20440;-91
2021/07/16 18:15:20;;;;;;;12.60;8.23;;;23.30;99.80;;;;;;6181071;23;20442;-92
2021/07/16 18:18:06;;;;;;;9.13;7.87;;;23.00;99.80;;;;;;6147623;23;20929;-92
2021/07/16 18:20:34;;;;;;;8.30;6.80;;;;;;;;;;6149714;23;20432;-92
2021/07/16 18:23:04;;;;;;;9.10;7.33;;;22.80;99.80;;;;;;6109753;23;20490;-92
2021/07/16 18:25:35;;;;;;;8.00;7.20;;;22.70;99.80;;;;;;6127212;23;20434;-93
2021/07/16 18:28:05;;;;;;;11.77;8.67;;;22.60;99.80;;;;;;6143798;23;20497;-91
2021/07/16 18:30:34;;;;;;;10.17;7.50;;;;;;;;;;6143940;23;20441;-91
2021/07/16 18:33:03;;;;;;;8.90;7.10;;;22.50;99.80;;;;;;6134259;23;21204;-89
2021/07/16 18:35:34;;;;;;;8.47;7.20;;;22.40;99.80;;;;;;6149434;23;20440;-90
2021/07/16 18:38:03;;;;;;;11.47;8.00;;;22.30;99.80;;;;;;6147089;23;20441;-89
2021/07/16 18:40:33;;;;;;;14.07;8.30;;;22.10;99.80;;;;;;6142345;23;20441;-91
2021/07/16 18:43:01;;;;;;;10.30;7.87;;;;;;;;;;6132820;23;20446;-90
2021/07/16 18:45:29;;;;;;;12.63;7.90;;;21.90;99.80;;;;;;6136852;23;20934;-89
2021/07/16 18:47:57;;;;;;;13.43;8.73;;;21.80;99.80;;;;;;6134116;23;20893;-89
2021/07/16 18:50:25;;;;;;;9.77;8.00;;;21.80;99.80;;;;;;6141349;23;21115;-89
2021/07/16 18:52:53;;;;;;;10.47;8.23;;;;;;;;;;6134596;23;20780;-89
2021/07/16 18:55:22;;;;;;;9.27;8.00;;;;;;;;;;6125221;23;20445;-89
2021/07/16 18:57:51;;;;;;;11.63;8.20;;;21.60;99.80;;;;;;6142071;23;20821;-88
2021/07/16 19:00:20;;;;;;;18.00;9.33;;;21.40;99.80;;;;;;6113213;23;20464;-90
2021/07/16 19:02:49;;;;;;;11.30;8.37;;;21.30;99.80;;;;;;6104290;23;20443;-90
2021/07/16 19:05:18;;;;;;;11.90;8.87;;;21.30;99.80;;;;;;6154455;23;20445;-90